Time;durP1;ratioP1;P1;durP2;ratioP2;P2;SDS_P1;SDS_P2;PMS_P1;PMS_P2;Temp;Humidity;BMP_temperature;BMP_pressure;BME280_temperature;BME280_humidity;BME280_pressure;Samples;Min_cycle;Max_cycle;Signal;HPM_P1;HPM_P2
2023/08/15 00:05:44;;;;;;;8.10;7.30;;;;;;;19.68;67.86;99744.31;433791;1257;140100;-60
2023/08/15 00:15:48;;;;;;;;;;;;;;;19.66;67.98;99745.03;434516;1256;139700;-63
2023/08/15 00:25:54;;;;;;;8.20;7.30;;;;;;;19.75;67.87;99738.35;434180;1256;125439;-59
2023/08/15 00:36:00;;;;;;;11.10;8.40;;;;;;;19.77;67.84;99736.36;434208;1260;139470;-59
2023/08/15 00:46:08;;;;;;;11.70;8.00;;;;;;;19.75;68.05;99733.05;433796;1260;140257;-60
2023/08/15 00:56:15;;;;;;;7.40;6.60;;;;;;;19.68;68.25;99741.88;434291;1260;140326;-60
2023/08/15 01:06:20;;;;;;;12.10;8.50;;;;;;;19.62;68.32;99753.14;434161;1256;138854;-60
2023/08/15 01:16:42;;;;;;;10.40;8.40;;;;;;;19.48;68.93;99760.17;434214;1258;140158;-59
2023/08/15 01:26:48;;;;;;;8.70;7.80;;;;;;;19.34;69.16;99755.13;434502;1255;139082;-59
2023/08/15 01:36:58;;;;;;;13.80;8.50;;;;;;;19.24;69.61;99758.27;434276;1254;139199;-59
2023/08/15 01:47:04;;;;;;;8.90;7.60;;;;;;;19.09;69.97;99754.58;433803;1256;138966;-59
2023/08/15 01:57:10;;;;;;;11.50;8.90;;;;;;;19.02;70.37;99749.19;434147;1256;140473;-59
2023/08/15 02:07:16;;;;;;;9.10;8.20;;;;;;;18.93;70.87;99751.91;433845;1256;140017;-60
2023/08/15 02:17:22;;;;;;;10.70;8.20;;;;;;;18.84;71.32;99756.03;433871;1258;138895;-59
2023/08/15 02:27:28;;;;;;;9.90;8.60;;;;;;;18.73;71.91;99752.91;433739;1256;139823;-59
2023/08/15 02:37:35;;;;;;;9.80;8.00;;;;;;;18.64;72.51;99748.82;434149;1257;140391;-59
2023/08/15 02:47:41;;;;;;;9.90;8.30;;;;;;;18.58;72.94;99742.73;434329;1258;138796;-61
2023/08/15 02:57:46;;;;;;;11.00;9.20;;;;;;;18.55;73.25;99745.07;433848;1259;140637;-60
2023/08/15 03:07:52;;;;;;;10.30;9.40;;;;;;;18.53;73.47;99747.48;433736;1260;139509;-59
2023/08/15 03:17:58;;;;;;;10.70;8.10;;;;;;;18.50;73.58;99745.41;433831;1257;139086;-60
2023/08/15 03:28:05;;;;;;;8.20;7.40;;;;;;;18.48;73.81;99750.81;433669;1260;139418;-58
2023/08/15 03:38:11;;;;;;;8.60;7.80;;;;;;;18.46;73.88;99752.28;434151;1257;141114;-59
2023/08/15 03:48:16;;;;;;;11.00;7.20;;;;;;;18.48;74.07;99760.78;434175;1259;138954;-58
2023/08/15 03:58:23;;;;;;;10.40;8.00;;;;;;;18.59;74.14;99763.15;434088;1259;141235;-59
2023/08/15 04:08:29;;;;;;;9.10;6.70;;;;;;;18.79;74.18;99766.98;435073;1257;140080;-59
2023/08/15 04:18:36;;;;;;;7.70;6.60;;;;;;;19.14;73.96;99768.09;434414;1258;138927;-59
2023/08/15 04:28:41;;;;;;;8.30;6.80;;;;;;;19.56;73.24;99775.70;434553;1256;139254;-58
2023/08/15 04:38:48;;;;;;;7.40;6.00;;;;;;;20.03;72.23;99777.50;434460;1258;140892;-58
2023/08/15 04:48:54;;;;;;;8.80;6.50;;;;;;;20.51;71.35;99778.47;434039;1258;138981;-59
2023/08/15 04:58:59;;;;;;;8.00;6.20;;;;;;;21.04;70.21;99776.78;433998;1258;139687;-59
2023/08/15 05:09:05;;;;;;;7.10;5.60;;;;;;;21.69;69.27;99775.09;434182;1256;140925;-60
2023/08/15 05:19:11;;;;;;;4.40;3.80;;;;;;;26.71;68.72;99763.80;434526;1254;139495;-58
2023/08/15 05:29:18;;;;;;;5.90;4.40;;;;;;;34.04;58.04;99763.44;434403;1256;139551;-60
2023/08/15 05:39:24;;;;;;;3.40;3.10;;;;;;;39.91;46.65;99763.73;434243;1256;139476;-60
2023/08/15 05:49:29;;;;;;;3.70;3.30;;;;;;;44.00;37.82;99766.46;434096;1254;138544;-61
2023/08/15 05:59:35;;;;;;;3.40;3.00;;;;;;;47.47;32.12;99763.73;434244;1256;138279;-67
2023/08/15 06:09:41;;;;;;;3.10;2.80;;;;;;;50.18;27.70;99763.89;434289;1258;139265;-64
2023/08/15 06:19:47;;;;;;;2.70;2.40;;;;;;;52.67;24.86;99772.05;434467;1256;139186;-60
2023/08/15 06:29:53;;;;;;;3.80;3.10;;;;;;;54.59;21.62;99769.85;434853;1256;138029;-66
2023/08/15 06:39:59;;;;;;;4.00;3.70;;;;;;;56.25;19.71;99781.52;434221;1258;138550;-65
2023/08/15 06:50:08;;;;;;;4.20;4.00;;;;;;;57.99;18.33;99793.73;434264;1258;139406;-65
2023/08/15 07:00:16;;;;;;;7.10;5.50;;;;;;;59.33;16.71;99795.60;434395;1256;138302;-63
2023/08/15 07:10:22;;;;;;;7.60;7.20;;;;;;;60.32;15.07;99793.49;434563;1256;138288;-61
2023/08/15 07:20:28;;;;;;;10.30;9.80;;;;;;;60.86;14.41;99797.77;434656;1256;138180;-65
2023/08/15 07:30:38;;;;;;;12.80;12.30;;;;;;;61.54;13.83;99794.65;434899;1256;138398;-67
2023/08/15 07:40:46;;;;;;;17.00;16.40;;;;;;;62.34;13.21;99790.64;434471;1256;140107;-61
2023/08/15 07:50:52;;;;;;;20.90;19.90;;;;;;;62.71;12.50;99782.09;434584;1258;140394;-63
2023/08/15 08:00:58;;;;;;;18.70;18.00;;;;;;;63.56;11.94;99778.35;434262;1258;140052;-62
2023/08/15 08:11:04;;;;;;;14.40;13.70;;;;;;;63.39;11.70;99773.43;434148;1258;138575;-63
2023/08/15 08:21:11;;;;;;;6.30;4.20;;;;;;;61.96;11.91;99761.71;434231;1258;139022;-62
2023/08/15 08:31:17;;;;;;;3.20;2.50;;;;;;;55.33;13.02;99750.94;434583;1257;138600;-66
2023/08/15 08:41:24;;;;;;;3.10;2.30;;;;;;;48.84;15.75;99750.02;434400;1258;138117;-66
2023/08/15 08:51:32;;;;;;;2.20;2.00;;;;;;;44.99;18.10;99744.86;434026;1254;138075;-61
2023/08/15 09:01:40;;;;;;;3.00;2.30;;;;;;;42.53;19.85;99742.86;434155;1257;139032;-60
2023/08/15 09:11:47;;;;;;;2.80;2.50;;;;;;;40.66;21.23;99747.85;435031;1256;138258;-60
2023/08/15 09:21:54;;;;;;;2.80;2.40;;;;;;;39.18;22.75;99747.98;434243;1256;139190;-58
2023/08/15 09:32:00;;;;;;;2.50;2.10;;;;;;;38.46;23.69;99744.06;434114;1256;138743;-58
2023/08/15 09:42:06;;;;;;;4.10;2.60;;;;;;;37.85;24.44;99738.31;434341;1256;138147;-59
2023/08/15 09:52:14;;;;;;;3.50;2.80;;;;;;;37.08;24.79;99728.96;434354;1258;140074;-58
2023/08/15 10:02:23;;;;;;;5.30;2.50;;;;;;;36.40;25.70;99721.28;434582;1258;139124;-61
2023/08/15 10:12:30;;;;;;;3.80;3.00;;;;;;;35.99;26.63;99724.96;434262;1256;139676;-61
2023/08/15 10:22:37;;;;;;;3.20;2.30;;;;;;;35.62;27.45;99720.08;434335;1258;139706;-61
2023/08/15 10:32:43;;;;;;;3.00;2.70;;;;;;;35.14;27.74;99719.95;435067;1256;139900;-63
2023/08/15 10:43:11;;;;;;;3.40;2.80;;;;;;;34.61;28.59;99711.72;434745;1258;139067;-63
2023/08/15 10:53:16;;;;;;;3.40;3.10;;;;;;;34.18;29.02;99709.28;434847;1256;139199;-65
2023/08/15 11:03:25;;;;;;;3.60;3.20;;;;;;;33.93;29.59;99708.54;434229;1260;138323;-69
2023/08/15 11:13:36;;;;;;;5.00;2.80;;;;;;;33.62;29.81;99709.83;435641;1261;138298;-63
2023/08/15 11:23:42;;;;;;;3.10;2.60;;;;;;;33.38;30.48;99703.00;434012;1261;138271;-61
2023/08/15 11:33:51;;;;;;;3.60;3.30;;;;;;;33.35;30.70;99694.52;435210;1259;138460;-62
2023/08/15 11:43:58;;;;;;;4.10;2.80;;;;;;;33.27;30.42;99679.81;435009;1259;138223;-72
2023/08/15 11:54:05;;;;;;;4.90;2.50;;;;;;;33.05;30.09;99682.02;435113;1260;138951;-73
2023/08/15 12:04:13;;;;;;;6.90;4.40;;;;;;;32.83;30.22;99674.05;434118;1259;152811;-60
2023/08/15 12:14:23;;;;;;;7.70;4.50;;;;;;;32.67;30.78;99669.24;434858;1259;139494;-64
2023/08/15 12:24:30;;;;;;;9.40;3.90;;;;;;;32.49;30.77;99661.35;434319;1259;139039;-64
2023/08/15 12:34:36;;;;;;;7.80;3.50;;;;;;;32.39;30.81;99655.23;434223;1259;138851;-62
2023/08/15 12:44:43;;;;;;;4.90;3.00;;;;;;;32.30;30.52;99647.77;434110;1256;138073;-64
2023/08/15 12:54:47;;;;;;;;;;;;;;;32.22;30.75;99638.14;434320;1259;138160;-64
2023/08/15 13:04:53;;;;;;;4.40;2.70;;;;;;;32.21;31.08;99636.39;434152;1260;124987;-59
2023/08/15 13:14:59;;;;;;;4.40;2.60;;;;;;;32.13;31.12;99631.66;434238;1256;139888;-65
2023/08/15 13:25:06;;;;;;;2.70;2.40;;;;;;;32.06;31.04;99616.26;434303;1260;138055;-63
2023/08/15 13:35:12;;;;;;;4.80;2.20;;;;;;;32.04;30.89;99616.65;434764;1259;138121;-61
2023/08/15 13:45:20;;;;;;;2.50;2.30;;;;;;;32.01;30.41;99612.42;434400;1260;139090;-64
2023/08/15 13:55:28;;;;;;;3.30;2.30;;;;;;;31.99;30.13;99611.64;434521;1257;138712;-62
2023/08/15 14:05:35;;;;;;;2.80;1.90;;;;;;;31.98;29.87;99610.78;434664;1260;138536;-62
2023/08/15 14:15:41;;;;;;;2.80;2.40;;;;;;;31.98;29.64;99606.61;434432;1259;139439;-63
2023/08/15 14:25:47;;;;;;;3.00;1.90;;;;;;;32.03;29.66;99599.96;434157;1259;140897;-64
2023/08/15 14:35:53;;;;;;;5.10;3.10;;;;;;;32.03;29.60;99599.70;434509;1259;139003;-59
2023/08/15 14:45:59;;;;;;;4.50;2.00;;;;;;;32.04;29.53;99596.79;434564;1259;139243;-59
2023/08/15 14:56:06;;;;;;;3.40;2.40;;;;;;;32.06;29.17;99595.55;434662;1257;139214;-59
2023/08/15 15:06:12;;;;;;;2.20;2.00;;;;;;;32.00;28.75;99597.47;435164;1260;138310;-58
2023/08/15 15:16:17;;;;;;;3.90;1.80;;;;;;;31.97;28.57;99596.75;434462;1257;138068;-58
2023/08/15 15:26:23;;;;;;;4.80;2.40;;;;;;;31.95;28.81;99588.19;434929;1258;138245;-61
2023/08/15 15:36:29;;;;;;;3.80;2.10;;;;;;;31.91;28.60;99584.08;434755;1257;138460;-61
2023/08/15 15:46:35;;;;;;;3.30;2.00;;;;;;;31.82;28.48;99575.32;434677;1257;138247;-61
2023/08/15 15:56:57;;;;;;;4.20;2.20;;;;;;;31.71;28.75;99563.52;434587;1257;139004;-60
2023/08/15 16:07:04;;;;;;;6.00;2.30;;;;;;;31.62;29.14;99557.85;434753;1257;138756;-60
2023/08/15 16:17:12;;;;;;;3.70;2.40;;;;;;;31.52;29.64;99553.23;434443;1260;139216;-59
2023/08/15 16:27:18;;;;;;;3.30;2.50;;;;;;;31.41;30.06;99549.86;435231;1257;139756;-61
2023/08/15 16:37:24;;;;;;;1.80;1.70;;;;;;;31.27;30.81;99555.57;435070;1257;140060;-60
2023/08/15 16:47:30;;;;;;;3.00;2.80;;;;;;;31.10;31.49;99557.71;434785;1257;138823;-62
2023/08/15 16:57:36;;;;;;;4.00;3.70;;;;;;;30.93;32.32;99561.30;435091;1257;140257;-60
2023/08/15 17:07:42;;;;;;;3.60;3.30;;;;;;;30.73;33.11;99561.09;434407;1259;140456;-61
2023/08/15 17:17:50;;;;;;;3.60;3.20;;;;;;;30.79;33.45;99567.91;435046;1256;138224;-60
2023/08/15 17:27:56;;;;;;;4.80;3.70;;;;;;;30.67;33.73;99576.92;434567;1256;138378;-61
2023/08/15 17:38:02;;;;;;;4.10;3.30;;;;;;;30.24;34.57;99589.34;434478;1257;139873;-59
2023/08/15 17:48:08;;;;;;;5.50;3.40;;;;;;;29.78;35.60;99591.78;434439;1258;138203;-59
2023/08/15 17:58:14;;;;;;;4.20;3.20;;;;;;;29.26;36.61;99591.23;434501;1258;138809;-61
2023/08/15 18:08:20;;;;;;;5.90;3.80;;;;;;;28.77;37.72;99605.52;435077;1257;138490;-60
2023/08/15 18:18:26;;;;;;;21.50;6.00;;;;;;;28.36;38.72;99619.36;434653;1257;139846;-60
2023/08/15 18:28:32;;;;;;;5.00;4.10;;;;;;;28.02;39.55;99642.73;434410;1258;139558;-60
2023/08/15 18:38:37;;;;;;;4.20;3.60;;;;;;;27.64;39.91;99660.31;434104;1258;138444;-58
2023/08/15 18:48:44;;;;;;;5.40;3.90;;;;;;;27.34;40.36;99672.33;434512;1255;138035;-61
2023/08/15 18:58:50;;;;;;;8.40;6.10;;;;;;;27.27;40.75;99676.77;434928;1256;138331;-61
2023/08/15 19:08:56;;;;;;;7.80;4.00;;;;;;;27.24;41.11;99682.20;434590;1258;140766;-61
2023/08/15 19:19:04;;;;;;;5.10;4.50;;;;;;;27.11;41.37;99689.11;435100;1256;138778;-59
2023/08/15 19:29:11;;;;;;;5.30;4.80;;;;;;;26.97;41.98;99688.70;434627;1256;139495;-61
2023/08/15 19:39:17;;;;;;;4.40;3.80;;;;;;;26.85;42.43;99696.04;434745;1256;139088;-62
2023/08/15 19:49:23;;;;;;;7.30;3.90;;;;;;;26.70;42.66;99697.71;434736;1256;138189;-61
2023/08/15 19:59:29;;;;;;;6.70;4.80;;;;;;;26.56;43.08;99705.00;435464;1257;139339;-62
2023/08/15 20:09:37;;;;;;;6.30;4.80;;;;;;;26.31;43.48;99705.13;434640;1258;138069;-61
2023/08/15 20:19:46;;;;;;;6.00;4.60;;;;;;;26.02;44.28;99704.08;434660;1256;139233;-61
2023/08/15 20:29:56;;;;;;;5.40;4.30;;;;;;;25.79;45.10;99706.41;436001;1255;138473;-61
2023/08/15 20:40:05;;;;;;;7.50;5.30;;;;;;;25.60;45.96;99707.95;434933;1256;138776;-59
2023/08/15 20:50:12;;;;;;;4.70;4.20;;;;;;;25.40;46.52;99702.59;434468;1258;139626;-59
2023/08/15 21:00:18;;;;;;;6.00;5.40;;;;;;;25.27;47.17;99701.52;434995;1258;139419;-60
2023/08/15 21:10:26;;;;;;;5.40;4.90;;;;;;;25.09;47.87;99702.46;434861;1256;141455;-60
2023/08/15 21:20:34;;;;;;;7.20;5.90;;;;;;;24.96;48.36;99699.25;435648;1255;138573;-60
2023/08/15 21:30:42;;;;;;;5.50;4.80;;;;;;;24.84;48.83;99697.44;434979;1254;138784;-61
2023/08/15 21:40:50;;;;;;;5.50;4.50;;;;;;;24.70;49.42;99696.40;434758;1256;138966;-61
2023/08/15 21:50:56;;;;;;;5.20;4.80;;;;;;;24.59;49.54;99699.73;434904;1256;139176;-63
2023/08/15 22:01:02;;;;;;;5.60;4.80;;;;;;;24.42;49.85;99697.80;434839;1258;138116;-61
2023/08/15 22:11:08;;;;;;;6.30;5.40;;;;;;;24.24;50.45;99704.23;435766;1256;139064;-61
2023/08/15 22:21:14;;;;;;;8.00;5.00;;;;;;;23.96;50.97;99700.16;434956;1256;139771;-61
2023/08/15 22:31:20;;;;;;;9.10;5.50;;;;;;;23.55;51.85;99701.30;434741;1258;138377;-64
2023/08/15 22:41:26;;;;;;;6.40;5.70;;;;;;;23.19;52.87;99702.94;435039;1258;139358;-63
2023/08/15 22:51:32;;;;;;;5.40;4.90;;;;;;;22.85;53.90;99703.73;434981;1256;139051;-59
2023/08/15 23:01:39;;;;;;;7.20;5.80;;;;;;;22.63;54.77;99706.00;434229;1258;138354;-62
2023/08/15 23:11:46;;;;;;;7.00;6.30;;;;;;;22.49;55.48;99707.76;435368;1258;138012;-60
2023/08/15 23:21:52;;;;;;;7.30;6.60;;;;;;;22.37;56.11;99701.43;434405;1258;139527;-59
2023/08/15 23:31:58;;;;;;;7.00;6.30;;;;;;;22.27;56.79;99708.61;434850;1258;138282;-60
2023/08/15 23:42:04;;;;;;;7.10;6.50;;;;;;;22.11;57.41;99711.90;434716;1256;139826;-60
2023/08/15 23:52:10;;;;;;;6.80;6.30;;;;;;;21.95;57.94;99710.13;434589;1258;138672;-61
